createdAt,value
2023-02-19T00:01:58.647Z,3.60
2023-02-19T00:07:01.033Z,3.60
2023-02-19T00:12:03.517Z,3.80
2023-02-19T00:17:05.826Z,3.70
2023-02-19T00:22:08.127Z,3.60
2023-02-19T00:27:10.438Z,3.60
2023-02-19T00:32:12.892Z,3.60
2023-02-19T00:37:15.309Z,3.50
2023-02-19T00:42:17.618Z,3.50
2023-02-19T00:47:19.959Z,3.50
2023-02-19T00:52:22.315Z,3.50
2023-02-19T00:57:24.640Z,3.40
2023-02-19T01:02:27.357Z,3.40
2023-02-19T01:07:29.641Z,3.50
2023-02-19T01:12:32.437Z,3.40
2023-02-19T01:17:36.394Z,3.60
2023-02-19T01:22:38.646Z,3.50
2023-02-19T01:27:41.929Z,3.40
2023-02-19T01:32:44.353Z,3.50
2023-02-19T01:37:46.633Z,3.50
2023-02-19T01:42:49.030Z,3.50
2023-02-19T01:47:58.025Z,3.60
2023-02-19T01:53:05.388Z,3.50
2023-02-19T01:58:09.733Z,3.50
2023-02-19T02:03:13.758Z,3.40
2023-02-19T02:08:36.333Z,3.50
2023-02-19T02:13:40.222Z,3.50
2023-02-19T02:18:59.529Z,3.40
2023-02-19T02:24:29.406Z,3.40
2023-02-19T02:29:37.093Z,3.40
2023-02-19T02:34:58.236Z,3.40
2023-02-19T02:40:01.745Z,3.50
2023-02-19T02:45:37.427Z,3.50
2023-02-19T02:51:04.422Z,3.50
2023-02-19T02:56:13.907Z,3.40
2023-02-19T03:01:59.045Z,3.40
2023-02-19T03:07:08.037Z,3.40
2023-02-19T03:12:51.060Z,3.40
2023-02-19T03:18:17.641Z,3.50
2023-02-19T03:23:43.143Z,3.50
2023-02-19T03:29:07.142Z,3.50
2023-02-19T03:34:16.625Z,3.60
2023-02-19T03:39:22.444Z,3.60
2023-02-19T03:44:46.764Z,3.60
2023-02-19T03:49:53.302Z,3.70
2023-02-19T03:55:18.017Z,3.70
2023-02-19T04:00:49.211Z,3.80
2023-02-19T04:05:58.438Z,3.80
2023-02-19T04:11:01.767Z,3.80
2023-02-19T04:16:12.288Z,3.90
2023-02-19T04:21:15.592Z,3.90
2023-02-19T04:26:19.964Z,3.80
2023-02-19T04:31:23.127Z,3.80
2023-02-19T04:36:25.527Z,3.80
2023-02-19T04:41:27.835Z,3.80
2023-02-19T04:46:30.277Z,3.70
2023-02-19T04:51:32.664Z,3.70
2023-02-19T04:56:35.144Z,3.80
2023-02-19T05:01:37.477Z,3.80
2023-02-19T05:06:40.220Z,3.70
2023-02-19T05:11:42.620Z,3.80
2023-02-19T05:16:44.980Z,3.80
2023-02-19T05:21:48.765Z,3.80
2023-02-19T05:26:51.227Z,3.80
2023-02-19T05:31:53.815Z,3.80
2023-02-19T05:36:56.230Z,3.80
2023-02-19T05:41:58.683Z,3.80
2023-02-19T05:47:01.024Z,3.90
2023-02-19T05:52:03.776Z,3.80
2023-02-19T05:57:06.180Z,3.80
2023-02-19T06:02:10.116Z,3.70
2023-02-19T06:07:13.182Z,3.70
2023-02-19T06:12:15.475Z,3.70
2023-02-19T06:17:17.835Z,3.80
2023-02-19T06:22:20.128Z,3.90
2023-02-19T06:27:22.503Z,3.90
2023-02-19T06:32:25.028Z,3.90
2023-02-19T06:37:27.456Z,3.90
2023-02-19T06:42:32.892Z,4.00
2023-02-19T06:47:35.358Z,3.90
2023-02-19T06:52:37.692Z,3.90
2023-02-19T06:57:40.030Z,3.80
2023-02-19T07:02:42.301Z,3.80
2023-02-19T07:07:46.620Z,3.90
2023-02-19T07:12:48.975Z,3.90
2023-02-19T07:17:51.394Z,4.20
2023-02-19T07:22:53.720Z,4.10
2023-02-19T07:27:56.057Z,4.10
2023-02-19T07:32:58.378Z,4.10
2023-02-19T07:38:00.646Z,4.10
2023-02-19T07:43:02.965Z,4.10
2023-02-19T07:48:05.275Z,4.20
2023-02-19T07:53:08.033Z,4.30
2023-02-19T07:58:10.488Z,4.40
2023-02-19T08:03:12.977Z,4.50
2023-02-19T08:08:15.806Z,4.80
2023-02-19T08:13:25.417Z,4.60
2023-02-19T08:18:30.150Z,4.60
2023-02-19T08:23:32.602Z,4.70
2023-02-19T08:28:34.950Z,4.70
2023-02-19T08:33:38.103Z,4.60
2023-02-19T08:38:40.514Z,4.50
2023-02-19T08:43:43.284Z,4.70
2023-02-19T08:48:45.642Z,5.10
2023-02-19T08:53:48.034Z,5.20
2023-02-19T08:58:50.446Z,5.10
2023-02-19T09:03:53.390Z,5.40
2023-02-19T09:08:55.845Z,5.30
2023-02-19T09:13:58.164Z,5.10
2023-02-19T09:19:00.507Z,5.20
2023-02-19T09:24:02.805Z,5.00
2023-02-19T09:29:05.053Z,5.30
2023-02-19T09:34:07.491Z,5.70
2023-02-19T09:39:12.484Z,5.60
2023-02-19T09:44:24.532Z,5.70
2023-02-19T09:49:29.716Z,5.70
2023-02-19T09:54:33.959Z,5.80
2023-02-19T09:59:48.010Z,6.00
2023-02-19T10:04:52.228Z,5.80
2023-02-19T10:09:58.976Z,6.20
2023-02-19T10:15:27.844Z,6.30
2023-02-19T10:20:30.303Z,5.90
2023-02-19T10:25:34.810Z,6.10
2023-02-19T10:30:37.533Z,6.20
2023-02-19T10:36:02.217Z,6.30
2023-02-19T10:41:23.454Z,6.50
2023-02-19T10:46:29.091Z,6.80
2023-02-19T10:51:36.935Z,6.40
2023-02-19T10:56:40.769Z,6.40
2023-02-19T11:02:00.924Z,7.10
2023-02-19T11:07:17.284Z,7.40
2023-02-19T11:12:31.994Z,7.40
2023-02-19T11:17:34.360Z,7.40
2023-02-19T11:22:40.128Z,7.50
2023-02-19T11:27:59.201Z,7.00
2023-02-19T11:33:16.721Z,6.80
2023-02-19T11:38:19.708Z,7.50
2023-02-19T11:43:28.128Z,8.00
2023-02-19T11:48:53.825Z,8.60
2023-02-19T11:54:23.140Z,8.70
2023-02-19T11:59:38.363Z,8.20
2023-02-19T12:04:56.545Z,7.80
2023-02-19T12:10:49.624Z,8.90
2023-02-19T12:16:37.102Z,9.20
2023-02-19T12:22:09.310Z,9.00
2023-02-19T12:27:27.405Z,8.50
2023-02-19T12:32:42.299Z,8.50
2023-02-19T12:38:09.970Z,8.00
2023-02-19T12:43:22.389Z,8.10
2023-02-19T12:48:36.769Z,7.50
2023-02-19T12:53:57.008Z,7.60
2023-02-19T12:59:04.159Z,8.10
2023-02-19T13:04:26.232Z,8.30
2023-02-19T13:09:35.693Z,8.30
2023-02-19T13:14:44.021Z,8.70
2023-02-19T13:19:48.480Z,8.70
2023-02-19T13:24:51.759Z,9.00
2023-02-19T13:30:05.241Z,9.40
2023-02-19T13:35:19.251Z,10.00
2023-02-19T13:40:42.908Z,9.10
2023-02-19T13:45:46.322Z,8.30
2023-02-19T13:51:26.991Z,8.00
2023-02-19T13:56:34.718Z,9.30
2023-02-19T14:01:54.761Z,9.70
2023-02-19T14:07:05.782Z,10.60
2023-02-19T14:12:08.018Z,11.20
2023-02-19T14:17:10.227Z,12.10
2023-02-19T14:22:52.004Z,12.30
2023-02-19T14:28:22.403Z,11.20
2023-02-19T14:33:34.809Z,11.10
2023-02-19T14:38:46.925Z,11.90
2023-02-19T14:43:53.706Z,13.10
2023-02-19T14:48:58.024Z,12.40
2023-02-19T14:54:09.119Z,12.50
2023-02-19T14:59:11.340Z,13.40
2023-02-19T15:04:25.522Z,12.20
2023-02-19T15:09:35.288Z,12.20
2023-02-19T15:14:40.060Z,12.00
2023-02-19T15:19:43.953Z,12.40
2023-02-19T15:24:48.503Z,12.40
2023-02-19T15:29:53.650Z,12.30
2023-02-19T15:35:04.136Z,10.90
2023-02-19T15:40:07.735Z,8.80
2023-02-19T15:45:21.131Z,8.00
2023-02-19T15:50:31.735Z,7.60
2023-02-19T15:55:39.602Z,7.30
2023-02-19T16:00:56.705Z,6.90
2023-02-19T16:06:14.903Z,6.60
2023-02-19T16:11:23.142Z,6.50
2023-02-19T16:16:36.254Z,6.30
2023-02-19T16:21:39.141Z,6.00
2023-02-19T16:26:43.226Z,6.00
2023-02-19T16:31:55.653Z,5.80
2023-02-19T16:36:58.002Z,5.60
2023-02-19T16:42:00.209Z,5.40
2023-02-19T16:47:04.754Z,5.30
2023-02-19T16:52:06.996Z,5.50
2023-02-19T16:57:09.234Z,5.20
2023-02-19T17:02:17.668Z,5.10
2023-02-19T17:07:20.019Z,5.00
2023-02-19T17:12:22.830Z,4.90
2023-02-19T17:17:25.146Z,4.80
2023-02-19T17:22:27.721Z,4.80
2023-02-19T17:27:29.971Z,4.60
2023-02-19T17:32:32.292Z,4.60
2023-02-19T17:37:34.615Z,4.50
2023-02-19T17:42:36.831Z,4.40
2023-02-19T17:47:39.115Z,4.40
2023-02-19T17:52:41.824Z,4.30
2023-02-19T17:57:49.008Z,4.30
2023-02-19T18:02:51.772Z,4.20
2023-02-19T18:07:54.309Z,4.10
2023-02-19T18:12:56.776Z,4.00
2023-02-19T18:17:59.247Z,3.90
2023-02-19T18:23:02.522Z,3.80
2023-02-19T18:28:05.274Z,3.80
2023-02-19T18:33:07.675Z,3.70
2023-02-19T18:38:09.911Z,3.60
2023-02-19T18:43:12.899Z,3.50
2023-02-19T18:48:15.179Z,3.50
2023-02-19T18:53:17.440Z,3.40
2023-02-19T18:58:20.007Z,3.30
2023-02-19T19:03:22.249Z,3.20
2023-02-19T19:08:24.763Z,3.20
2023-02-19T19:13:26.996Z,3.20
2023-02-19T19:18:31.159Z,3.10
2023-02-19T19:23:33.593Z,3.10
2023-02-19T19:28:36.387Z,3.00
2023-02-19T19:33:38.810Z,2.90
2023-02-19T19:38:41.375Z,2.90
2023-02-19T19:43:43.825Z,2.90
2023-02-19T19:48:50.651Z,2.90
2023-02-19T19:53:52.871Z,2.80
2023-02-19T19:58:55.156Z,2.80
2023-02-19T20:03:57.402Z,2.70
2023-02-19T20:09:00.154Z,2.70
2023-02-19T20:14:02.534Z,2.70
2023-02-19T20:19:04.914Z,2.60
2023-02-19T20:24:07.732Z,2.60
2023-02-19T20:29:10.470Z,2.70
2023-02-19T20:34:12.733Z,2.70
2023-02-19T20:39:19.260Z,2.60
2023-02-19T20:44:21.646Z,2.60
2023-02-19T20:49:28.515Z,2.60
2023-02-19T20:54:32.791Z,2.50
2023-02-19T20:59:35.501Z,2.40
2023-02-19T21:04:39.382Z,2.50
2023-02-19T21:09:42.003Z,2.40
2023-02-19T21:14:45.254Z,2.50
2023-02-19T21:19:49.893Z,2.60
2023-02-19T21:24:53.867Z,2.50
2023-02-19T21:29:56.078Z,2.50
2023-02-19T21:34:58.291Z,2.50
2023-02-19T21:40:00.650Z,2.50
2023-02-19T21:45:03.759Z,2.60
2023-02-19T21:50:06.933Z,2.50
2023-02-19T21:55:09.200Z,2.60
2023-02-19T22:00:12.143Z,2.60
2023-02-19T22:05:14.471Z,2.60
2023-02-19T22:10:17.840Z,2.60
2023-02-19T22:15:20.082Z,2.60
2023-02-19T22:20:22.329Z,2.50
2023-02-19T22:25:25.038Z,2.50
2023-02-19T22:30:27.503Z,2.40
2023-02-19T22:35:29.958Z,2.40
2023-02-19T22:40:32.322Z,2.40
2023-02-19T22:45:34.593Z,2.30
2023-02-19T22:50:36.866Z,2.30
2023-02-19T22:55:39.127Z,2.30
2023-02-19T23:00:41.363Z,2.30
2023-02-19T23:05:43.659Z,2.10
2023-02-19T23:10:45.916Z,2.20
2023-02-19T23:15:48.199Z,2.20
2023-02-19T23:20:50.455Z,2.20
2023-02-19T23:25:52.739Z,2.20
2023-02-19T23:30:55.103Z,2.20
2023-02-19T23:35:57.539Z,2.10
2023-02-19T23:41:00.319Z,2.10
2023-02-19T23:46:03.154Z,2.10
2023-02-19T23:51:05.582Z,2.10
2023-02-19T23:56:07.963Z,2.10
